sensor_id;sensor_type;location;lat;lon;timestamp;pressure;altitude;pressure_sealevel;temperature;humidity
55217;BME280;41086;46.736;15.666;2023-04-10T00:02:10;56955.81;;;-143.57;100.00
55217;BME280;41086;46.736;15.666;2023-04-10T00:05:36;56955.81;;;-143.57;100.00
55217;BME280;41086;46.736;15.666;2023-04-10T00:09:01;56955.81;;;-143.57;100.00
55217;BME280;41086;46.736;15.666;2023-04-10T00:12:26;56955.81;;;-143.57;100.00
55217;BME280;41086;46.736;15.666;2023-04-10T00:15:52;56955.81;;;-143.57;100.00
55217;BME280;41086;46.736;15.666;2023-04-10T00:19:17;56955.81;;;-143.57;100.00
55217;BME280;41086;46.736;15.666;2023-04-10T00:22:42;56955.81;;;-143.57;100.00
55217;BME280;41086;46.736;15.666;2023-04-10T00:26:08;56955.81;;;-143.57;100.00
55217;BME280;41086;46.736;15.666;2023-04-10T00:29:34;56955.81;;;-143.57;100.00
55217;BME280;41086;46.736;15.666;2023-04-10T00:32:59;56955.81;;;-143.57;100.00
55217;BME280;41086;46.736;15.666;2023-04-10T00:36:24;56955.81;;;-143.57;100.00
55217;BME280;41086;46.736;15.666;2023-04-10T00:39:50;56955.81;;;-143.57;100.00
55217;BME280;41086;46.736;15.666;2023-04-10T00:43:16;56955.81;;;-143.57;100.00
55217;BME280;41086;46.736;15.666;2023-04-10T00:46:43;56955.81;;;-143.57;100.00
55217;BME280;41086;46.736;15.666;2023-04-10T00:50:08;56955.81;;;-143.57;100.00
55217;BME280;41086;46.736;15.666;2023-04-10T00:53:34;56955.81;;;-143.57;100.00
55217;BME280;41086;46.736;15.666;2023-04-10T00:56:59;56955.81;;;-143.57;100.00
55217;BME280;41086;46.736;15.666;2023-04-10T01:00:25;56955.81;;;-143.57;100.00
55217;BME280;41086;46.736;15.666;2023-04-10T01:03:51;56955.81;;;-143.57;100.00
55217;BME280;41086;46.736;15.666;2023-04-10T01:11:15;56955.81;;;-143.57;100.00
55217;BME280;41086;46.736;15.666;2023-04-10T01:15:10;56955.81;;;-143.57;100.00
55217;BME280;41086;46.736;15.666;2023-04-10T01:18:38;56955.81;;;-143.57;100.00
55217;BME280;41086;46.736;15.666;2023-04-10T01:22:08;56955.81;;;-143.57;100.00
55217;BME280;41086;46.736;15.666;2023-04-10T01:25:53;56955.81;;;-143.57;100.00
55217;BME280;41086;46.736;15.666;2023-04-10T01:29:28;56955.81;;;-143.57;100.00
55217;BME280;41086;46.736;15.666;2023-04-10T01:33:00;56955.81;;;-143.57;100.00
55217;BME280;41086;46.736;15.666;2023-04-10T01:36:30;56955.81;;;-143.57;100.00
55217;BME280;41086;46.736;15.666;2023-04-10T01:40:02;56955.81;;;-143.57;100.00
55217;BME280;41086;46.736;15.666;2023-04-10T01:43:29;56955.81;;;-143.57;100.00
55217;BME280;41086;46.736;15.666;2023-04-10T01:46:56;56955.81;;;-143.57;100.00
55217;BME280;41086;46.736;15.666;2023-04-10T01:50:23;56955.81;;;-143.57;100.00
55217;BME280;41086;46.736;15.666;2023-04-10T01:53:52;56955.81;;;-143.57;100.00
55217;BME280;41086;46.736;15.666;2023-04-10T01:57:22;56955.81;;;-143.57;100.00
55217;BME280;41086;46.736;15.666;2023-04-10T02:00:50;56955.81;;;-143.57;100.00
55217;BME280;41086;46.736;15.666;2023-04-10T02:04:16;56955.81;;;-143.57;100.00
55217;BME280;41086;46.736;15.666;2023-04-10T02:11:43;56955.81;;;-143.57;100.00
55217;BME280;41086;46.736;15.666;2023-04-10T02:15:15;56955.81;;;-143.57;100.00
55217;BME280;41086;46.736;15.666;2023-04-10T02:18:41;56955.81;;;-143.57;100.00
55217;BME280;41086;46.736;15.666;2023-04-10T02:22:07;56955.81;;;-143.57;100.00
55217;BME280;41086;46.736;15.666;2023-04-10T02:25:33;56955.81;;;-143.57;100.00
55217;BME280;41086;46.736;15.666;2023-04-10T02:29:02;56955.81;;;-143.57;100.00
55217;BME280;41086;46.736;15.666;2023-04-10T02:32:28;56955.81;;;-143.57;100.00
55217;BME280;41086;46.736;15.666;2023-04-10T02:35:53;56955.81;;;-143.57;100.00
55217;BME280;41086;46.736;15.666;2023-04-10T02:39:19;56955.81;;;-143.57;100.00
55217;BME280;41086;46.736;15.666;2023-04-10T02:42:48;56955.81;;;-143.57;100.00
55217;BME280;41086;46.736;15.666;2023-04-10T02:46:13;56955.81;;;-143.57;100.00
55217;BME280;41086;46.736;15.666;2023-04-10T02:49:39;56955.81;;;-143.57;100.00
55217;BME280;41086;46.736;15.666;2023-04-10T02:53:10;56955.81;;;-143.57;100.00
55217;BME280;41086;46.736;15.666;2023-04-10T02:56:36;56955.81;;;-143.57;100.00
55217;BME280;41086;46.736;15.666;2023-04-10T03:00:02;56955.81;;;-143.57;100.00
55217;BME280;41086;46.736;15.666;2023-04-10T03:03:47;56955.81;;;-143.57;100.00
55217;BME280;41086;46.736;15.666;2023-04-10T03:07:21;56955.81;;;-143.57;100.00
55217;BME280;41086;46.736;15.666;2023-04-10T03:10:46;56955.81;;;-143.57;100.00
55217;BME280;41086;46.736;15.666;2023-04-10T03:14:15;56955.81;;;-143.57;100.00
55217;BME280;41086;46.736;15.666;2023-04-10T03:17:41;56955.81;;;-143.57;100.00
55217;BME280;41086;46.736;15.666;2023-04-10T03:21:06;56955.81;;;-143.57;100.00
55217;BME280;41086;46.736;15.666;2023-04-10T03:24:32;56955.81;;;-143.57;100.00
55217;BME280;41086;46.736;15.666;2023-04-10T03:27:57;56955.81;;;-143.57;100.00
55217;BME280;41086;46.736;15.666;2023-04-10T03:31:22;56955.81;;;-143.57;100.00
55217;BME280;41086;46.736;15.666;2023-04-10T03:34:51;56955.81;;;-143.57;100.00
55217;BME280;41086;46.736;15.666;2023-04-10T03:38:16;56955.81;;;-143.57;100.00
55217;BME280;41086;46.736;15.666;2023-04-10T03:41:42;56955.81;;;-143.57;100.00
55217;BME280;41086;46.736;15.666;2023-04-10T03:45:07;56955.81;;;-143.57;100.00
55217;BME280;41086;46.736;15.666;2023-04-10T03:48:32;56955.81;;;-143.57;100.00
55217;BME280;41086;46.736;15.666;2023-04-10T03:51:58;56955.81;;;-143.57;100.00
55217;BME280;41086;46.736;15.666;2023-04-10T03:55:25;56955.81;;;-143.57;100.00
55217;BME280;41086;46.736;15.666;2023-04-10T03:58:52;56955.81;;;-143.57;100.00
55217;BME280;41086;46.736;15.666;2023-04-10T04:02:17;56955.81;;;-143.57;100.00
55217;BME280;41086;46.736;15.666;2023-04-10T04:05:43;56955.81;;;-143.57;100.00
55217;BME280;41086;46.736;15.666;2023-04-10T04:09:31;56955.81;;;-143.57;100.00
55217;BME280;41086;46.736;15.666;2023-04-10T04:13:20;56955.81;;;-143.57;100.00
55217;BME280;41086;46.736;15.666;2023-04-10T04:17:11;56955.81;;;-143.57;100.00
55217;BME280;41086;46.736;15.666;2023-04-10T04:21:11;56955.81;;;-143.57;100.00
55217;BME280;41086;46.736;15.666;2023-04-10T04:24:55;56955.81;;;-143.57;100.00
55217;BME280;41086;46.736;15.666;2023-04-10T04:28:39;56955.81;;;-143.57;100.00
55217;BME280;41086;46.736;15.666;2023-04-10T04:32:16;56955.81;;;-143.57;100.00
55217;BME280;41086;46.736;15.666;2023-04-10T04:35:56;56955.81;;;-143.57;100.00
55217;BME280;41086;46.736;15.666;2023-04-10T04:39:45;56955.81;;;-143.57;100.00
55217;BME280;41086;46.736;15.666;2023-04-10T04:43:30;56955.81;;;-143.57;100.00
55217;BME280;41086;46.736;15.666;2023-04-10T04:47:01;56955.81;;;-143.57;100.00
55217;BME280;41086;46.736;15.666;2023-04-10T04:50:56;56955.81;;;-143.57;100.00
55217;BME280;41086;46.736;15.666;2023-04-10T04:54:47;56955.81;;;-143.57;100.00
55217;BME280;41086;46.736;15.666;2023-04-10T04:58:20;56955.81;;;-143.57;100.00
55217;BME280;41086;46.736;15.666;2023-04-10T05:02:06;56955.81;;;-143.57;100.00
55217;BME280;41086;46.736;15.666;2023-04-10T05:05:51;56955.81;;;-143.57;100.00
55217;BME280;41086;46.736;15.666;2023-04-10T05:09:35;56955.81;;;-143.57;100.00
55217;BME280;41086;46.736;15.666;2023-04-10T05:13:19;56955.81;;;-143.57;100.00
55217;BME280;41086;46.736;15.666;2023-04-10T05:17:08;56955.81;;;-143.57;100.00
55217;BME280;41086;46.736;15.666;2023-04-10T05:20:51;56955.81;;;-143.57;100.00
55217;BME280;41086;46.736;15.666;2023-04-10T05:24:36;56955.81;;;-143.57;100.00
55217;BME280;41086;46.736;15.666;2023-04-10T05:28:11;56955.81;;;-143.57;100.00
55217;BME280;41086;46.736;15.666;2023-04-10T05:31:51;56955.81;;;-143.57;100.00
55217;BME280;41086;46.736;15.666;2023-04-10T05:35:35;56955.81;;;-143.57;100.00
55217;BME280;41086;46.736;15.666;2023-04-10T05:39:19;56955.81;;;-143.57;100.00
55217;BME280;41086;46.736;15.666;2023-04-10T05:43:03;56955.81;;;-143.57;100.00
55217;BME280;41086;46.736;15.666;2023-04-10T05:46:52;56955.81;;;-143.57;100.00
55217;BME280;41086;46.736;15.666;2023-04-10T05:50:20;56955.81;;;-143.57;100.00
55217;BME280;41086;46.736;15.666;2023-04-10T05:53:47;56955.81;;;-143.57;100.00
55217;BME280;41086;46.736;15.666;2023-04-10T05:57:21;56955.81;;;-143.57;100.00
55217;BME280;41086;46.736;15.666;2023-04-10T06:01:16;56955.81;;;-143.57;100.00
55217;BME280;41086;46.736;15.666;2023-04-10T06:04:41;56955.81;;;-143.57;100.00
55217;BME280;41086;46.736;15.666;2023-04-10T06:08:07;56955.81;;;-143.57;100.00
55217;BME280;41086;46.736;15.666;2023-04-10T06:11:32;56955.81;;;-143.57;100.00
55217;BME280;41086;46.736;15.666;2023-04-10T06:14:58;56955.81;;;-143.57;100.00
55217;BME280;41086;46.736;15.666;2023-04-10T06:18:26;56955.81;;;-143.57;100.00
55217;BME280;41086;46.736;15.666;2023-04-10T06:21:52;56955.81;;;-143.57;100.00
55217;BME280;41086;46.736;15.666;2023-04-10T06:25:18;56955.81;;;-143.57;100.00
55217;BME280;41086;46.736;15.666;2023-04-10T06:28:43;56955.81;;;-143.57;100.00
55217;BME280;41086;46.736;15.666;2023-04-10T06:32:12;56955.81;;;-143.57;100.00
55217;BME280;41086;46.736;15.666;2023-04-10T06:35:37;56955.81;;;-143.57;100.00
55217;BME280;41086;46.736;15.666;2023-04-10T06:39:03;56955.81;;;-143.57;100.00
55217;BME280;41086;46.736;15.666;2023-04-10T06:42:29;56955.81;;;-143.57;100.00
55217;BME280;41086;46.736;15.666;2023-04-10T06:46:03;56955.81;;;-143.57;100.00
55217;BME280;41086;46.736;15.666;2023-04-10T06:49:29;56955.81;;;-143.57;100.00
55217;BME280;41086;46.736;15.666;2023-04-10T06:52:55;56955.81;;;-143.57;100.00
55217;BME280;41086;46.736;15.666;2023-04-10T06:56:24;56955.81;;;-143.57;100.00
55217;BME280;41086;46.736;15.666;2023-04-10T06:59:49;56955.81;;;-143.57;100.00
55217;BME280;41086;46.736;15.666;2023-04-10T07:03:15;56955.81;;;-143.57;100.00
55217;BME280;41086;46.736;15.666;2023-04-10T07:06:40;56955.81;;;-143.57;100.00
55217;BME280;41086;46.736;15.666;2023-04-10T07:10:05;56955.81;;;-143.57;100.00
55217;BME280;41086;46.736;15.666;2023-04-10T07:13:31;56955.81;;;-143.57;100.00
55217;BME280;41086;46.736;15.666;2023-04-10T07:16:56;56955.81;;;-143.57;100.00
55217;BME280;41086;46.736;15.666;2023-04-10T07:20:21;56955.81;;;-143.57;100.00
55217;BME280;41086;46.736;15.666;2023-04-10T07:23:47;56955.81;;;-143.57;100.00
55217;BME280;41086;46.736;15.666;2023-04-10T07:27:12;56955.81;;;-143.57;100.00
55217;BME280;41086;46.736;15.666;2023-04-10T07:30:37;56955.81;;;-143.57;100.00
55217;BME280;41086;46.736;15.666;2023-04-10T07:34:02;56955.81;;;-143.57;100.00
55217;BME280;41086;46.736;15.666;2023-04-10T07:38:59;56955.81;;;-143.57;100.00
55217;BME280;41086;46.736;15.666;2023-04-10T07:43:05;99323.88;;;6.92;100.00
55217;BME280;41086;46.736;15.666;2023-04-10T07:45:32;99329.56;;;7.03;100.00
55217;BME280;41086;46.736;15.666;2023-04-10T07:47:59;99329.56;;;7.03;100.00
55217;BME280;41086;46.736;15.666;2023-04-10T07:50:25;99329.56;;;7.03;100.00
55217;BME280;41086;46.736;15.666;2023-04-10T07:52:52;99329.56;;;7.03;100.00
55217;BME280;41086;46.736;15.666;2023-04-10T07:55:19;99329.56;;;7.03;100.00
55217;BME280;41086;46.736;15.666;2023-04-10T07:57:46;99329.56;;;7.03;100.00
55217;BME280;41086;46.736;15.666;2023-04-10T08:00:13;99329.56;;;7.03;100.00
55217;BME280;41086;46.736;15.666;2023-04-10T08:02:41;99329.56;;;-143.57;100.00
55217;BME280;41086;46.736;15.666;2023-04-10T08:05:08;56955.81;;;-143.57;100.00
55217;BME280;41086;46.736;15.666;2023-04-10T08:07:35;56955.81;;;-143.57;nan
55217;BME280;41086;46.736;15.666;2023-04-10T08:10:03;56955.81;;;-143.57;100.00
55217;BME280;41086;46.736;15.666;2023-04-10T08:12:32;56955.81;;;-143.57;100.00
55217;BME280;41086;46.736;15.666;2023-04-10T08:14:59;56955.81;;;-143.57;100.00
55217;BME280;41086;46.736;15.666;2023-04-10T08:17:26;56955.81;;;-143.57;100.00
55217;BME280;41086;46.736;15.666;2023-04-10T08:19:53;56955.81;;;-143.57;100.00
55217;BME280;41086;46.736;15.666;2023-04-10T08:22:20;99329.56;;;7.03;100.00
55217;BME280;41086;46.736;15.666;2023-04-10T08:24:47;99329.56;;;7.03;100.00
55217;BME280;41086;46.736;15.666;2023-04-10T08:27:13;99329.56;;;7.03;100.00
55217;BME280;41086;46.736;15.666;2023-04-10T08:29:42;99329.56;;;7.03;100.00
55217;BME280;41086;46.736;15.666;2023-04-10T08:32:08;56955.81;;;-143.57;100.00
55217;BME280;41086;46.736;15.666;2023-04-10T08:34:35;56955.81;;;-143.57;nan
55217;BME280;41086;46.736;15.666;2023-04-10T08:37:06;56955.81;;;-143.57;100.00
55217;BME280;41086;46.736;15.666;2023-04-10T08:39:37;56955.81;;;-143.57;100.00
55217;BME280;41086;46.736;15.666;2023-04-10T08:42:05;56955.81;;;-143.57;100.00
55217;BME280;41086;46.736;15.666;2023-04-10T08:44:32;56955.81;;;-143.57;100.00
55217;BME280;41086;46.736;15.666;2023-04-10T08:47:01;56955.81;;;-143.57;100.00
55217;BME280;41086;46.736;15.666;2023-04-10T08:49:34;56955.81;;;-143.57;100.00
55217;BME280;41086;46.736;15.666;2023-04-10T08:52:07;56955.81;;;-143.57;100.00
55217;BME280;41086;46.736;15.666;2023-04-10T08:54:37;56955.81;;;-143.57;100.00
55217;BME280;41086;46.736;15.666;2023-04-10T08:57:06;56955.81;;;-143.57;100.00
55217;BME280;41086;46.736;15.666;2023-04-10T08:59:36;56955.81;;;-143.57;100.00
55217;BME280;41086;46.736;15.666;2023-04-10T09:02:02;56955.81;;;-143.57;100.00
55217;BME280;41086;46.736;15.666;2023-04-10T09:04:29;56955.81;;;-143.57;100.00
55217;BME280;41086;46.736;15.666;2023-04-10T09:06:57;56955.81;;;-143.57;100.00
55217;BME280;41086;46.736;15.666;2023-04-10T09:09:24;56955.81;;;-143.57;100.00
55217;BME280;41086;46.736;15.666;2023-04-10T09:14:22;56955.81;;;-143.57;100.00
55217;BME280;41086;46.736;15.666;2023-04-10T09:16:50;56955.81;;;-143.57;100.00
55217;BME280;41086;46.736;15.666;2023-04-10T09:19:31;56955.81;;;-143.57;100.00
55217;BME280;41086;46.736;15.666;2023-04-10T09:21:58;56955.81;;;-143.57;100.00
55217;BME280;41086;46.736;15.666;2023-04-10T09:24:25;56955.81;;;-143.57;100.00
55217;BME280;41086;46.736;15.666;2023-04-10T09:26:52;56955.81;;;-143.57;100.00
55217;BME280;41086;46.736;15.666;2023-04-10T09:29:19;56955.81;;;-143.57;100.00
55217;BME280;41086;46.736;15.666;2023-04-10T09:31:46;56955.81;;;-143.57;100.00
55217;BME280;41086;46.736;15.666;2023-04-10T09:34:20;99310.69;;;10.46;87.52
55217;BME280;41086;46.736;15.666;2023-04-10T09:36:59;99303.72;;;10.75;85.37
55217;BME280;41086;46.736;15.666;2023-04-10T09:39:33;99297.09;;;10.83;88.01
55217;BME280;41086;46.736;15.666;2023-04-10T09:42:01;99306.31;;;10.76;81.77
55217;BME280;41086;46.736;15.666;2023-04-10T09:44:30;99293.66;;;11.27;81.88
55217;BME280;41086;46.736;15.666;2023-04-10T09:46:58;99290.97;;;11.43;83.13
55217;BME280;41086;46.736;15.666;2023-04-10T09:49:25;99286.31;;;10.55;84.44
55217;BME280;41086;46.736;15.666;2023-04-10T09:51:52;99302.38;;;10.83;81.19
55217;BME280;41086;46.736;15.666;2023-04-10T09:54:34;99291.34;;;10.75;76.11
55217;BME280;41086;46.736;15.666;2023-04-10T09:57:01;99285.44;;;10.86;79.95
55217;BME280;41086;46.736;15.666;2023-04-10T09:59:29;99291.00;;;10.97;78.47
55217;BME280;41086;46.736;15.666;2023-04-10T10:01:56;99278.88;;;11.68;78.17
55217;BME280;41086;46.736;15.666;2023-04-10T10:04:24;99281.09;;;12.04;88.51
55217;BME280;41086;46.736;15.666;2023-04-10T10:06:51;99275.56;;;11.79;72.10
55217;BME280;41086;46.736;15.666;2023-04-10T10:09:18;99271.50;;;12.30;72.21
55217;BME280;41086;46.736;15.666;2023-04-10T10:11:47;99264.50;;;12.71;63.99
55217;BME280;41086;46.736;15.666;2023-04-10T10:14:17;99275.47;;;12.52;68.11
55217;BME280;41086;46.736;15.666;2023-04-10T10:16:49;99269.09;;;12.40;72.06
55217;BME280;41086;46.736;15.666;2023-04-10T10:19:30;99280.31;;;12.45;80.07
55217;BME280;41086;46.736;15.666;2023-04-10T10:21:59;99263.78;;;12.54;79.98
55217;BME280;41086;46.736;15.666;2023-04-10T10:24:27;99271.22;;;12.20;61.91
55217;BME280;41086;46.736;15.666;2023-04-10T10:26:54;99269.94;;;11.83;72.48
55217;BME280;41086;46.736;15.666;2023-04-10T10:29:23;99263.59;;;11.71;66.11
55217;BME280;41086;46.736;15.666;2023-04-10T10:31:51;99261.72;;;11.59;76.88
55217;BME280;41086;46.736;15.666;2023-04-10T10:34:19;99268.47;;;11.93;87.34
55217;BME280;41086;46.736;15.666;2023-04-10T10:36:47;99265.75;;;12.65;72.16
55217;BME280;41086;46.736;15.666;2023-04-10T10:42:24;99254.13;;;13.86;59.84
55217;BME280;41086;46.736;15.666;2023-04-10T10:45:12;99250.94;;;14.56;55.17
55217;BME280;41086;46.736;15.666;2023-04-10T10:47:44;99237.06;;;15.23;59.89
55217;BME280;41086;46.736;15.666;2023-04-10T10:50:12;99237.06;;;15.23;52.95
55217;BME280;41086;46.736;15.666;2023-04-10T10:57:51;99226.81;;;15.52;46.48
55217;BME280;41086;46.736;15.666;2023-04-10T11:00:22;99223.88;;;16.13;52.36
55217;BME280;41086;46.736;15.666;2023-04-10T11:05:54;99218.81;;;17.50;47.67
55217;BME280;41086;46.736;15.666;2023-04-10T11:08:35;99216.66;;;17.65;48.29
55217;BME280;41086;46.736;15.666;2023-04-10T11:11:13;99215.13;;;17.09;50.65
55217;BME280;41086;46.736;15.666;2023-04-10T11:19:07;99206.31;;;13.06;55.27
55217;BME280;41086;46.736;15.666;2023-04-10T11:22:00;99204.97;;;13.51;59.93
55217;BME280;41086;46.736;15.666;2023-04-10T11:24:28;99196.72;;;13.16;65.68
55217;BME280;41086;46.736;15.666;2023-04-10T11:26:55;99202.50;;;12.83;59.85
55217;BME280;41086;46.736;15.666;2023-04-10T11:31:57;99189.19;;;12.83;63.51
55217;BME280;41086;46.736;15.666;2023-04-10T11:34:25;99194.34;;;12.59;60.13
55217;BME280;41086;46.736;15.666;2023-04-10T11:36:56;99182.59;;;12.76;68.25
55217;BME280;41086;46.736;15.666;2023-04-10T11:39:24;99191.94;;;12.69;58.32
55217;BME280;41086;46.736;15.666;2023-04-10T11:41:52;99189.28;;;12.69;61.69
55217;BME280;41086;46.736;15.666;2023-04-10T11:44:31;99183.16;;;12.94;60.17
55217;BME280;41086;46.736;15.666;2023-04-10T11:46:58;99180.41;;;13.08;56.44
55217;BME280;41086;46.736;15.666;2023-04-10T11:49:28;99178.47;;;13.37;63.33
55217;BME280;41086;46.736;15.666;2023-04-10T11:51:55;99174.13;;;13.49;60.20
55217;BME280;41086;46.736;15.666;2023-04-10T11:54:24;99167.28;;;13.32;59.77
55217;BME280;41086;46.736;15.666;2023-04-10T11:56:58;99160.81;;;14.11;61.22
55217;BME280;41086;46.736;15.666;2023-04-10T11:59:25;99159.66;;;14.03;55.07
55217;BME280;41086;46.736;15.666;2023-04-10T12:02:02;99156.38;;;13.86;54.79
55217;BME280;41086;46.736;15.666;2023-04-10T12:04:29;99125.75;;;14.05;60.78
55217;BME280;41086;46.736;15.666;2023-04-10T12:06:57;99157.81;;;14.77;57.24
55217;BME280;41086;46.736;15.666;2023-04-10T12:09:24;99153.03;;;14.69;54.26
55217;BME280;41086;46.736;15.666;2023-04-10T12:14:22;99150.88;;;14.74;51.45
55217;BME280;41086;46.736;15.666;2023-04-10T12:16:49;99148.47;;;15.18;48.16
55217;BME280;41086;46.736;15.666;2023-04-10T12:19:17;99150.44;;;14.92;49.96
55217;BME280;41086;46.736;15.666;2023-04-10T12:21:45;99133.91;;;15.33;50.34
55217;BME280;41086;46.736;15.666;2023-04-10T12:24:12;99135.38;;;15.26;48.86
55217;BME280;41086;46.736;15.666;2023-04-10T12:26:46;99124.44;;;15.40;45.85
55217;BME280;41086;46.736;15.666;2023-04-10T12:29:13;99126.63;;;15.58;54.51
55217;BME280;41086;46.736;15.666;2023-04-10T12:31:41;99118.03;;;15.99;45.22
55217;BME280;41086;46.736;15.666;2023-04-10T12:34:08;99118.38;;;16.49;42.33
55217;BME280;41086;46.736;15.666;2023-04-10T12:36:36;99110.22;;;17.04;42.18
55217;BME280;41086;46.736;15.666;2023-04-10T12:39:04;99107.00;;;17.31;43.43
55217;BME280;41086;46.736;15.666;2023-04-10T12:41:33;99102.94;;;17.06;46.93
55217;BME280;41086;46.736;15.666;2023-04-10T12:44:11;99094.03;;;17.88;46.51
55217;BME280;41086;46.736;15.666;2023-04-10T12:46:40;99091.63;;;17.85;45.25
55217;BME280;41086;46.736;15.666;2023-04-10T12:49:12;99087.22;;;17.43;43.01
55217;BME280;41086;46.736;15.666;2023-04-10T12:51:49;99084.16;;;17.27;43.22
55217;BME280;41086;46.736;15.666;2023-04-10T12:54:30;99082.69;;;16.92;44.19
55217;BME280;41086;46.736;15.666;2023-04-10T12:56:58;99078.19;;;16.28;44.72
55217;BME280;41086;46.736;15.666;2023-04-10T12:59:25;99079.88;;;16.40;43.41
55217;BME280;41086;46.736;15.666;2023-04-10T13:01:52;99071.28;;;16.26;42.16
55217;BME280;41086;46.736;15.666;2023-04-10T13:04:19;99078.44;;;15.48;44.47
55217;BME280;41086;46.736;15.666;2023-04-10T13:06:46;99080.56;;;14.98;46.00
55217;BME280;41086;46.736;15.666;2023-04-10T13:09:14;99076.84;;;14.65;45.45
55217;BME280;41086;46.736;15.666;2023-04-10T13:11:43;99073.72;;;14.12;47.58
55217;BME280;41086;46.736;15.666;2023-04-10T13:14:11;99069.69;;;14.06;48.55
55217;BME280;41086;46.736;15.666;2023-04-10T13:16:38;99070.56;;;14.42;45.91
55217;BME280;41086;46.736;15.666;2023-04-10T13:19:05;99060.09;;;15.10;45.50
55217;BME280;41086;46.736;15.666;2023-04-10T13:21:31;99059.50;;;15.28;43.91
55217;BME280;41086;46.736;15.666;2023-04-10T13:23:58;99059.97;;;15.00;44.26
55217;BME280;41086;46.736;15.666;2023-04-10T13:26:25;99054.66;;;15.45;44.20
55217;BME280;41086;46.736;15.666;2023-04-10T13:28:52;99048.81;;;15.62;45.21
55217;BME280;41086;46.736;15.666;2023-04-10T13:31:19;99044.94;;;15.66;44.35
55217;BME280;41086;46.736;15.666;2023-04-10T13:33:46;99041.16;;;15.46;45.68
55217;BME280;41086;46.736;15.666;2023-04-10T13:36:14;99039.25;;;15.15;47.51
55217;BME280;41086;46.736;15.666;2023-04-10T13:38:41;99034.03;;;14.55;49.19
55217;BME280;41086;46.736;15.666;2023-04-10T13:41:08;99031.66;;;13.91;51.47
55217;BME280;41086;46.736;15.666;2023-04-10T13:43:35;99028.34;;;14.01;51.41
55217;BME280;41086;46.736;15.666;2023-04-10T13:46:02;99027.56;;;14.47;48.41
55217;BME280;41086;46.736;15.666;2023-04-10T13:48:28;99030.47;;;15.46;48.22
55217;BME280;41086;46.736;15.666;2023-04-10T13:51:06;99019.13;;;16.31;47.36
55217;BME280;41086;46.736;15.666;2023-04-10T13:53:34;99026.06;;;16.76;45.68
55217;BME280;41086;46.736;15.666;2023-04-10T13:56:01;99019.94;;;16.85;44.96
55217;BME280;41086;46.736;15.666;2023-04-10T13:58:27;99012.09;;;16.72;39.87
55217;BME280;41086;46.736;15.666;2023-04-10T14:00:57;99014.78;;;16.72;40.99
55217;BME280;41086;46.736;15.666;2023-04-10T14:03:24;99003.31;;;16.81;43.13
55217;BME280;41086;46.736;15.666;2023-04-10T14:05:51;99013.81;;;16.94;43.76
55217;BME280;41086;46.736;15.666;2023-04-10T14:08:18;98989.91;;;16.81;41.16
55217;BME280;41086;46.736;15.666;2023-04-10T14:10:45;98993.59;;;16.69;42.40
55217;BME280;41086;46.736;15.666;2023-04-10T14:13:17;99007.78;;;16.60;43.50
55217;BME280;41086;46.736;15.666;2023-04-10T14:15:44;99009.47;;;15.53;49.16
55217;BME280;41086;46.736;15.666;2023-04-10T14:18:11;98999.78;;;14.49;47.79
55217;BME280;41086;46.736;15.666;2023-04-10T14:20:37;98996.31;;;14.25;47.58
55217;BME280;41086;46.736;15.666;2023-04-10T14:23:08;98996.41;;;15.05;51.13
55217;BME280;41086;46.736;15.666;2023-04-10T14:25:35;98997.34;;;16.04;46.42
55217;BME280;41086;46.736;15.666;2023-04-10T14:28:01;99000.13;;;16.55;46.38
55217;BME280;41086;46.736;15.666;2023-04-10T14:30:28;98989.03;;;16.39;43.79
55217;BME280;41086;46.736;15.666;2023-04-10T14:32:56;99002.22;;;15.10;45.38
55217;BME280;41086;46.736;15.666;2023-04-10T14:35:23;98993.09;;;14.44;54.54
55217;BME280;41086;46.736;15.666;2023-04-10T14:37:50;98993.03;;;14.21;50.20
55217;BME280;41086;46.736;15.666;2023-04-10T14:40:17;98985.75;;;14.12;56.59
55217;BME280;41086;46.736;15.666;2023-04-10T14:42:43;98992.78;;;13.89;49.48
55217;BME280;41086;46.736;15.666;2023-04-10T14:45:11;98990.03;;;13.90;57.11
55217;BME280;41086;46.736;15.666;2023-04-10T14:47:38;98988.59;;;13.73;52.80
55217;BME280;41086;46.736;15.666;2023-04-10T14:50:05;98987.34;;;13.66;49.40
55217;BME280;41086;46.736;15.666;2023-04-10T14:52:32;98977.03;;;13.62;48.91
55217;BME280;41086;46.736;15.666;2023-04-10T14:54:59;98983.97;;;14.24;48.01
55217;BME280;41086;46.736;15.666;2023-04-10T14:57:26;98980.72;;;15.12;51.38
55217;BME280;41086;46.736;15.666;2023-04-10T14:59:55;98969.13;;;15.67;46.61
55217;BME280;41086;46.736;15.666;2023-04-10T15:02:22;98980.13;;;15.42;44.23
55217;BME280;41086;46.736;15.666;2023-04-10T15:04:49;98965.97;;;15.73;44.66
55217;BME280;41086;46.736;15.666;2023-04-10T15:07:16;98971.66;;;15.91;42.11
55217;BME280;41086;46.736;15.666;2023-04-10T15:09:43;98974.59;;;15.66;41.70
55217;BME280;41086;46.736;15.666;2023-04-10T15:12:09;98968.53;;;16.28;42.49
55217;BME280;41086;46.736;15.666;2023-04-10T15:14:36;98963.44;;;16.88;44.48
55217;BME280;41086;46.736;15.666;2023-04-10T15:17:03;98965.03;;;17.31;40.88
55217;BME280;41086;46.736;15.666;2023-04-10T15:19:30;98959.91;;;17.09;38.75
55217;BME280;41086;46.736;15.666;2023-04-10T15:21:56;98960.38;;;16.93;39.43
55217;BME280;41086;46.736;15.666;2023-04-10T15:24:23;98963.47;;;15.93;43.51
55217;BME280;41086;46.736;15.666;2023-04-10T15:26:50;98964.34;;;15.16;44.34
55217;BME280;41086;46.736;15.666;2023-04-10T15:29:21;98963.13;;;15.32;44.52
55217;BME280;41086;46.736;15.666;2023-04-10T15:31:48;98955.38;;;14.95;43.36